Aeroporto :
LOGIN :

Iscrizione | Disclaimer

   EN    FR    IT 

 










Sommario :    VFR   VFR Marginale   IFR   IFR Intensivo   IFR Molto Intensivo
Visibilità : 
Base nubi : 
>= 8 km
>= 3000ft
5 / 8 km
1000 / 3000 ft
1500m / 5 km
500 / 1000 ft
800 / 1500m
200 / 500 ft
< 800m
< 200 ft
Simboli :   Temporali  Nebbia  Neve Forte  Precipitazioni Forti  Vento > 20 kt
SIGMETs :   Varie  Temporali  Ghiacco  Turbolenza  Onda orograficha  Ceneri Vulcaniche






- Altitudine del aeroporto : 390 ft
- Codice IATA : NQY


EGHQ - Newquay

ULTIMO METAR :
  • 211550Z 16007KT 9999 8000E VCSH FEW010CB FEW030 09/07 Q0994

METARs OBSOLETI :
  • 211520Z 15008KT 9999 VCSH FEW020 FEW034CB 09/07 Q0994
  • 211450Z 17008KT 9999 3000SE -SHRA SCT017 SCT030 09/07 Q0994
  • 211420Z 16008KT 9999 SCT016 10/08 Q0994
  • 211350Z 17006KT 9999 VCSH SCT014 FEW025CB 09/07 Q0994
  • 211320Z 19008KT 150V210 9999 VCSH FEW012 SCT025CB 09/07 Q0994

TAF TAF EGHQ
Valido dal 21 a 15 ore il 21 a 22 ore UTC


211403Z 2115/2122 16012KT 9999 FEW012 SCT022
PROB30
TEMPO 2115/2122 4000 +SHRA BKN012 BKN022CB



MetMap, La meteo Aeronautica in un colpo d'occhio ! - Copyright ORBIFLY Dicembre 2007 - Disclaimer

ORBIFLY MET'MAP TEAM :

Programmazione e sviluppo : Alexandra Zaïnal
Concezione e sviluppo : Baudouin d'Aumeries
Co-Programmazione e sviluppo : Marc-Olivier Méhu
Supporto tecnico e logistico : Manuel Goepfert
Aiuto per la traduzione : Arnaldo La Scala

Contatto : metmap@orbifly.com




FONTI E CREDITI :

   NOAA